createdAt,value
2022-11-27T00:01:10.900Z,89.80
2022-11-27T00:03:40.532Z,89.80
2022-11-27T00:06:11.571Z,89.90
2022-11-27T00:08:38.755Z,89.90
2022-11-27T00:11:10.960Z,89.90
2022-11-27T00:13:38.427Z,89.90
2022-11-27T00:16:06.574Z,89.90
2022-11-27T00:18:34.562Z,89.90
2022-11-27T00:21:25.183Z,89.90
2022-11-27T00:23:53.756Z,90.00
2022-11-27T00:26:21.896Z,90.10
2022-11-27T00:28:49.490Z,89.90
2022-11-27T00:31:23.197Z,89.80
2022-11-27T00:33:50.336Z,89.80
2022-11-27T00:36:17.478Z,89.60
2022-11-27T00:38:44.640Z,88.60
2022-11-27T00:41:27.415Z,89.40
2022-11-27T00:43:55.019Z,89.40
2022-11-27T00:46:28.808Z,89.30
2022-11-27T00:49:03.701Z,88.20
2022-11-27T00:51:31.814Z,89.10
2022-11-27T00:53:59.737Z,89.00
2022-11-27T00:56:32.126Z,89.00
2022-11-27T00:58:59.814Z,88.80
2022-11-27T01:01:33.340Z,88.80
2022-11-27T01:04:01.873Z,88.70
2022-11-27T01:06:30.027Z,88.60
2022-11-27T01:08:58.024Z,88.50
2022-11-27T01:11:28.207Z,88.40
2022-11-27T01:13:57.772Z,88.30
2022-11-27T01:16:27.598Z,88.30
2022-11-27T01:18:58.123Z,88.40
2022-11-27T01:21:27.389Z,88.30
2022-11-27T01:23:55.223Z,88.20
2022-11-27T01:26:22.716Z,88.10
2022-11-27T01:28:52.735Z,87.90
2022-11-27T01:31:23.054Z,87.80
2022-11-27T01:33:56.256Z,87.70
2022-11-27T01:36:24.131Z,87.60
2022-11-27T01:38:51.385Z,86.70
2022-11-27T01:41:27.644Z,87.50
2022-11-27T01:43:58.177Z,87.30
2022-11-27T01:46:36.871Z,87.40
2022-11-27T01:49:22.413Z,87.50
2022-11-27T01:51:54.593Z,87.50
2022-11-27T01:54:24.855Z,87.50
2022-11-27T01:56:56.230Z,87.50
2022-11-27T01:59:24.602Z,87.50
2022-11-27T02:01:51.908Z,87.40
2022-11-27T02:04:19.864Z,87.50
2022-11-27T02:06:47.337Z,87.60
2022-11-27T02:09:14.888Z,87.80
2022-11-27T02:11:51.182Z,87.80
2022-11-27T02:14:35.907Z,87.80
2022-11-27T02:17:11.812Z,88.00
2022-11-27T02:20:08.296Z,87.30
2022-11-27T02:22:38.287Z,87.90
2022-11-27T02:25:16.259Z,87.90
2022-11-27T02:27:46.137Z,87.60
2022-11-27T02:30:13.797Z,87.50
2022-11-27T02:33:13.634Z,87.30
2022-11-27T02:35:51.658Z,87.20
2022-11-27T02:38:25.465Z,86.20
2022-11-27T02:41:00.824Z,86.90
2022-11-27T02:43:34.502Z,86.80
2022-11-27T02:46:03.914Z,86.60
2022-11-27T02:48:39.399Z,86.50
2022-11-27T02:51:08.173Z,86.50
2022-11-27T02:53:52.759Z,86.20
2022-11-27T02:56:23.277Z,86.90
2022-11-27T02:58:52.545Z,85.80
2022-11-27T03:01:22.431Z,85.60
2022-11-27T03:03:55.264Z,85.60
2022-11-27T03:06:29.661Z,85.90
2022-11-27T03:09:29.820Z,85.60
2022-11-27T03:11:57.134Z,85.50
2022-11-27T03:14:24.864Z,85.40
2022-11-27T03:17:10.989Z,85.40
2022-11-27T03:19:48.741Z,84.50
2022-11-27T03:22:16.816Z,85.30
2022-11-27T03:24:44.353Z,85.10
2022-11-27T03:27:19.663Z,85.00
2022-11-27T03:29:51.753Z,84.80
2022-11-27T03:32:19.351Z,84.70
2022-11-27T03:34:47.812Z,84.70
2022-11-27T03:37:15.660Z,84.60
2022-11-27T03:39:43.308Z,84.40
2022-11-27T03:42:36.399Z,84.30
2022-11-27T03:45:12.506Z,84.20
2022-11-27T03:47:58.778Z,84.10
2022-11-27T03:50:38.821Z,83.80
2022-11-27T03:53:33.673Z,83.80
2022-11-27T03:56:10.268Z,83.70
2022-11-27T03:59:12.667Z,83.60
2022-11-27T04:01:40.546Z,83.60
2022-11-27T04:04:08.136Z,83.50
2022-11-27T04:06:35.585Z,83.40
2022-11-27T04:09:03.493Z,83.50
2022-11-27T04:11:30.856Z,83.30
2022-11-27T04:13:59.739Z,83.30
2022-11-27T04:16:26.932Z,83.20
2022-11-27T04:18:54.168Z,82.30
2022-11-27T04:21:21.425Z,83.20
2022-11-27T04:23:48.521Z,83.20
2022-11-27T04:26:15.944Z,83.10
2022-11-27T04:28:43.124Z,82.90
2022-11-27T04:31:10.310Z,83.00
2022-11-27T04:33:37.827Z,83.00
2022-11-27T04:36:05.353Z,82.80
2022-11-27T04:38:32.538Z,82.70
2022-11-27T04:40:59.664Z,82.70
2022-11-27T04:43:26.924Z,82.70
2022-11-27T04:45:54.056Z,82.70
2022-11-27T04:48:21.241Z,82.70
2022-11-27T04:50:48.362Z,82.70
2022-11-27T04:53:15.615Z,82.80
2022-11-27T04:55:42.799Z,82.60
2022-11-27T04:58:09.957Z,82.50
2022-11-27T05:00:37.245Z,82.50
2022-11-27T05:03:04.497Z,82.40
2022-11-27T05:05:31.727Z,82.20
2022-11-27T05:07:58.959Z,82.20
2022-11-27T05:10:26.119Z,82.30
2022-11-27T05:12:53.269Z,82.20
2022-11-27T05:15:20.358Z,82.30
2022-11-27T05:17:47.448Z,82.50
2022-11-27T05:20:15.161Z,81.30
2022-11-27T05:22:42.485Z,82.10
2022-11-27T05:25:09.791Z,82.30
2022-11-27T05:27:36.971Z,83.00
2022-11-27T05:30:04.518Z,83.90
2022-11-27T05:32:31.695Z,85.00
2022-11-27T05:34:58.856Z,85.50
2022-11-27T05:37:25.998Z,86.00
2022-11-27T05:39:53.299Z,86.20
2022-11-27T05:42:20.470Z,87.20
2022-11-27T05:44:47.593Z,87.60
2022-11-27T05:47:14.722Z,88.10
2022-11-27T05:49:41.899Z,87.90
2022-11-27T05:52:09.112Z,89.10
2022-11-27T05:54:36.251Z,89.40
2022-11-27T05:57:03.559Z,89.90
2022-11-27T05:59:30.683Z,89.10
2022-11-27T06:01:57.926Z,90.10
2022-11-27T06:04:25.093Z,90.20
2022-11-27T06:06:52.284Z,90.30
2022-11-27T06:09:19.448Z,90.40
2022-11-27T06:11:46.561Z,90.40
2022-11-27T06:14:13.742Z,90.50
2022-11-27T06:16:40.946Z,90.60
2022-11-27T06:19:08.991Z,90.60
2022-11-27T06:21:36.209Z,90.70
2022-11-27T06:24:03.537Z,90.70
2022-11-27T06:26:33.383Z,90.70
2022-11-27T06:29:01.696Z,90.90
2022-11-27T06:31:31.506Z,91.00
2022-11-27T06:33:59.574Z,91.10
2022-11-27T06:36:39.929Z,91.20
2022-11-27T06:39:07.881Z,91.30
2022-11-27T06:41:35.019Z,91.30
2022-11-27T06:44:02.724Z,91.40
2022-11-27T06:46:30.156Z,91.50
2022-11-27T06:48:58.177Z,91.50
2022-11-27T06:51:28.361Z,91.50
2022-11-27T06:53:56.096Z,91.50
2022-11-27T06:56:28.114Z,91.70
2022-11-27T06:59:00.163Z,91.70
2022-11-27T07:01:28.759Z,91.70
2022-11-27T07:03:56.872Z,91.80
2022-11-27T07:06:25.892Z,91.80
2022-11-27T07:08:54.126Z,91.90
2022-11-27T07:11:24.387Z,91.80
2022-11-27T07:13:52.237Z,91.90
2022-11-27T07:16:19.467Z,92.00
2022-11-27T07:18:49.898Z,91.90
2022-11-27T07:21:17.789Z,91.80
2022-11-27T07:23:45.693Z,91.90
2022-11-27T07:26:19.065Z,91.90
2022-11-27T07:28:47.233Z,91.70
2022-11-27T07:31:23.860Z,92.00
2022-11-27T07:33:53.831Z,91.90
2022-11-27T07:36:23.760Z,91.90
2022-11-27T07:38:50.996Z,91.60
2022-11-27T07:41:18.339Z,92.00
2022-11-27T07:43:46.312Z,92.00
2022-11-27T07:46:17.391Z,92.00
2022-11-27T07:48:45.206Z,91.60
2022-11-27T07:51:14.789Z,91.90
2022-11-27T07:53:42.933Z,91.80
2022-11-27T07:56:12.319Z,91.50
2022-11-27T07:58:39.988Z,91.40
2022-11-27T08:01:12.440Z,91.20
2022-11-27T08:03:40.085Z,91.20
2022-11-27T08:06:24.368Z,91.00
2022-11-27T08:08:52.150Z,90.80
2022-11-27T08:11:29.824Z,90.90
2022-11-27T08:13:59.788Z,90.70
2022-11-27T08:16:28.433Z,90.60
2022-11-27T08:18:55.961Z,90.40
2022-11-27T08:21:23.345Z,90.50
2022-11-27T08:23:50.661Z,90.60
2022-11-27T08:26:17.851Z,90.60
2022-11-27T08:28:45.318Z,90.50
2022-11-27T08:31:14.977Z,90.40
2022-11-27T08:33:42.283Z,90.40
2022-11-27T08:36:14.943Z,90.30
2022-11-27T08:38:45.174Z,90.20
2022-11-27T08:41:12.463Z,90.10
2022-11-27T08:43:39.596Z,90.20
2022-11-27T08:46:07.638Z,90.10
2022-11-27T08:48:35.080Z,90.00
2022-11-27T08:51:08.569Z,89.50
2022-11-27T08:53:37.572Z,89.40
2022-11-27T08:56:06.849Z,90.00
2022-11-27T08:58:34.315Z,90.10
2022-11-27T09:01:11.437Z,90.40
2022-11-27T09:03:38.971Z,90.70
2022-11-27T09:06:11.221Z,90.70
2022-11-27T09:08:42.916Z,91.00
2022-11-27T09:11:12.190Z,91.20
2022-11-27T09:13:40.357Z,91.30
2022-11-27T09:16:11.159Z,91.50
2022-11-27T09:18:38.584Z,91.20
2022-11-27T09:21:08.600Z,91.60
2022-11-27T09:23:39.041Z,91.60
2022-11-27T09:26:09.193Z,91.70
2022-11-27T09:28:37.649Z,91.70
2022-11-27T09:31:07.663Z,91.90
2022-11-27T09:33:37.106Z,92.00
2022-11-27T09:36:07.153Z,91.70
2022-11-27T09:38:34.379Z,91.90
2022-11-27T09:41:26.714Z,92.00
2022-11-27T09:43:57.612Z,91.90
2022-11-27T09:46:37.927Z,92.00
2022-11-27T09:49:27.373Z,91.80
2022-11-27T09:52:07.777Z,92.20
2022-11-27T09:54:55.073Z,92.20
2022-11-27T09:57:38.836Z,92.20
2022-11-27T10:00:13.454Z,91.80
2022-11-27T10:02:43.055Z,92.10
2022-11-27T10:05:17.440Z,92.40
2022-11-27T10:08:12.421Z,92.30
2022-11-27T10:11:01.562Z,92.30
2022-11-27T10:13:40.001Z,92.30
2022-11-27T10:16:27.762Z,92.30
2022-11-27T10:19:02.055Z,92.00
2022-11-27T10:21:54.853Z,92.40
2022-11-27T10:24:26.385Z,92.20
2022-11-27T10:26:58.156Z,92.20
2022-11-27T10:29:47.299Z,91.90
2022-11-27T10:35:23.276Z,92.30
2022-11-27T10:38:06.446Z,92.20
2022-11-27T10:40:42.902Z,92.40
2022-11-27T10:43:20.339Z,92.40
2022-11-27T10:46:02.751Z,92.40
2022-11-27T10:48:30.310Z,93.00
2022-11-27T10:50:57.607Z,92.50
2022-11-27T10:53:36.217Z,92.60
2022-11-27T10:56:13.761Z,92.60
2022-11-27T10:58:46.813Z,92.60
2022-11-27T11:01:17.534Z,92.60
2022-11-27T11:03:45.323Z,92.80
2022-11-27T11:06:25.596Z,92.70
2022-11-27T11:09:06.060Z,92.80
2022-11-27T11:11:33.264Z,92.80
2022-11-27T11:14:00.464Z,92.80
2022-11-27T11:16:34.787Z,92.80
2022-11-27T11:19:03.361Z,92.50
2022-11-27T11:21:30.521Z,93.00
2022-11-27T11:24:04.337Z,93.00
2022-11-27T11:26:38.861Z,93.00
2022-11-27T11:29:26.263Z,93.10
2022-11-27T11:31:55.224Z,93.00
2022-11-27T11:34:30.530Z,92.90
2022-11-27T11:37:07.833Z,92.50
2022-11-27T11:39:44.478Z,92.20
2022-11-27T11:42:24.104Z,92.20
2022-11-27T11:44:54.150Z,92.30
2022-11-27T11:47:25.002Z,92.50
2022-11-27T11:49:54.957Z,92.40
2022-11-27T11:52:49.911Z,92.20
2022-11-27T11:55:26.735Z,92.30
2022-11-27T11:58:02.552Z,92.30
2022-11-27T12:00:58.556Z,92.80
2022-11-27T12:03:54.598Z,92.40
2022-11-27T12:06:37.371Z,92.60
2022-11-27T12:09:31.668Z,92.60
2022-11-27T12:12:12.846Z,92.70
2022-11-27T12:14:47.393Z,92.80
2022-11-27T12:17:48.365Z,92.90
2022-11-27T12:20:42.174Z,92.80
2022-11-27T12:23:31.133Z,92.90
2022-11-27T12:26:13.940Z,93.10
2022-11-27T12:28:41.141Z,93.10
2022-11-27T12:31:36.401Z,92.80
2022-11-27T12:34:17.889Z,93.00
2022-11-27T12:37:22.295Z,93.00
2022-11-27T12:40:01.207Z,93.20
2022-11-27T12:42:58.830Z,93.20
2022-11-27T12:45:47.640Z,93.00
2022-11-27T12:48:27.445Z,93.30
2022-11-27T12:50:58.907Z,93.20
2022-11-27T12:53:34.693Z,93.00
2022-11-27T12:56:10.628Z,93.20
2022-11-27T12:58:42.578Z,93.20
2022-11-27T13:01:22.445Z,93.20
2022-11-27T13:04:13.399Z,93.30
2022-11-27T13:06:54.853Z,93.20
2022-11-27T13:09:35.662Z,93.20
2022-11-27T13:12:03.503Z,93.30
2022-11-27T13:14:33.357Z,93.20
2022-11-27T13:17:08.767Z,93.30
2022-11-27T13:19:50.699Z,92.80
2022-11-27T13:22:29.378Z,93.20
2022-11-27T13:25:00.275Z,93.20
2022-11-27T13:27:30.555Z,93.00
2022-11-27T13:30:01.680Z,93.10
2022-11-27T13:32:37.454Z,92.90
2022-11-27T13:35:18.701Z,92.60
2022-11-27T13:37:49.133Z,92.40
2022-11-27T13:40:26.657Z,92.20
2022-11-27T13:42:56.026Z,91.80
2022-11-27T13:45:30.038Z,91.70
2022-11-27T13:48:00.334Z,91.40
2022-11-27T13:50:31.249Z,91.20
2022-11-27T13:53:07.246Z,91.20
2022-11-27T13:55:37.149Z,91.10
2022-11-27T13:58:05.734Z,90.70
2022-11-27T14:00:44.623Z,90.50
2022-11-27T14:03:29.289Z,90.60
2022-11-27T14:05:57.657Z,90.50
2022-11-27T14:08:34.535Z,90.50
2022-11-27T14:11:08.027Z,90.30
2022-11-27T14:13:42.496Z,90.10
2022-11-27T14:16:26.332Z,90.20
2022-11-27T14:18:57.073Z,89.40
2022-11-27T14:21:41.139Z,90.10
2022-11-27T14:24:34.514Z,90.10
2022-11-27T14:27:07.814Z,90.00
2022-11-27T14:29:34.967Z,90.30
2022-11-27T14:32:02.809Z,89.50
2022-11-27T14:34:32.113Z,89.50
2022-11-27T14:37:00.125Z,89.10
2022-11-27T14:39:33.073Z,89.10
2022-11-27T14:42:02.573Z,89.30
2022-11-27T14:44:30.444Z,89.10
2022-11-27T14:47:01.427Z,90.00
2022-11-27T14:49:30.122Z,89.20
2022-11-27T14:52:02.840Z,89.10
2022-11-27T14:54:33.143Z,89.10
2022-11-27T14:57:00.529Z,89.10
2022-11-27T14:59:27.717Z,89.10
2022-11-27T15:02:11.929Z,89.20
2022-11-27T15:04:41.605Z,89.00
2022-11-27T15:07:20.189Z,89.10
2022-11-27T15:09:50.499Z,89.00
2022-11-27T15:12:23.857Z,89.10
2022-11-27T15:14:50.985Z,89.00
2022-11-27T15:17:26.150Z,89.00
2022-11-27T15:19:55.025Z,88.10
2022-11-27T15:22:22.944Z,88.90
2022-11-27T15:25:04.978Z,89.10
2022-11-27T15:27:43.823Z,88.90
2022-11-27T15:30:14.107Z,88.00
2022-11-27T15:32:52.804Z,88.90
2022-11-27T15:35:28.439Z,89.00
2022-11-27T15:37:58.037Z,88.10
2022-11-27T15:40:38.054Z,88.80
2022-11-27T15:43:16.165Z,88.80
2022-11-27T15:45:44.355Z,88.70
2022-11-27T15:48:16.889Z,88.60
2022-11-27T15:50:48.391Z,88.60
2022-11-27T15:53:18.536Z,89.50
2022-11-27T15:55:45.816Z,88.50
2022-11-27T15:58:12.965Z,88.40
2022-11-27T16:00:40.601Z,88.30
2022-11-27T16:03:07.919Z,88.30
2022-11-27T16:05:35.035Z,88.30
2022-11-27T16:08:02.227Z,88.20
2022-11-27T16:10:29.397Z,88.00
2022-11-27T16:12:57.619Z,88.00
2022-11-27T16:15:28.737Z,87.90
2022-11-27T16:17:58.850Z,87.20
2022-11-27T16:20:27.063Z,88.00
2022-11-27T16:22:54.350Z,87.90
2022-11-27T16:25:21.469Z,87.70
2022-11-27T16:27:48.650Z,87.90
2022-11-27T16:30:15.961Z,88.40
2022-11-27T16:32:43.102Z,88.80
2022-11-27T16:35:10.328Z,89.50
2022-11-27T16:37:37.587Z,89.90
2022-11-27T16:40:05.530Z,90.10
2022-11-27T16:42:33.493Z,90.30
2022-11-27T16:45:00.705Z,90.70
2022-11-27T16:47:33.619Z,90.70
2022-11-27T16:50:02.271Z,90.80
2022-11-27T16:52:30.152Z,91.10
2022-11-27T16:54:57.570Z,91.20
2022-11-27T16:57:24.753Z,91.30
2022-11-27T16:59:52.014Z,91.50
2022-11-27T17:02:20.462Z,91.50
2022-11-27T17:04:48.090Z,91.60
2022-11-27T17:07:15.272Z,91.60
2022-11-27T17:09:43.044Z,91.70
2022-11-27T17:12:10.189Z,91.70
2022-11-27T17:14:38.793Z,91.70
2022-11-27T17:17:06.643Z,91.80
2022-11-27T17:19:35.890Z,91.90
2022-11-27T17:22:03.447Z,91.90
2022-11-27T17:24:35.857Z,92.00
2022-11-27T17:27:04.356Z,92.10
2022-11-27T17:29:33.814Z,92.20
2022-11-27T17:32:03.240Z,92.10
2022-11-27T17:34:30.574Z,92.20
2022-11-27T17:36:58.613Z,92.10
2022-11-27T17:39:25.766Z,91.90
2022-11-27T17:41:52.970Z,92.30
2022-11-27T17:44:20.271Z,92.30
2022-11-27T17:46:50.011Z,92.30
2022-11-27T17:49:19.593Z,92.40
2022-11-27T17:51:48.063Z,92.40
2022-11-27T17:54:15.200Z,92.40
2022-11-27T17:56:43.046Z,92.40
2022-11-27T17:59:10.696Z,92.10
2022-11-27T18:01:39.248Z,92.50
2022-11-27T18:04:06.648Z,92.60
2022-11-27T18:06:34.400Z,92.60
2022-11-27T18:09:02.278Z,92.70
2022-11-27T18:11:31.500Z,92.70
2022-11-27T18:14:01.851Z,92.80
2022-11-27T18:16:39.079Z,92.90
2022-11-27T18:19:10.110Z,92.90
2022-11-27T18:21:38.287Z,92.90
2022-11-27T18:24:23.374Z,93.10
2022-11-27T18:27:08.782Z,93.00
2022-11-27T18:29:39.463Z,92.70
2022-11-27T18:32:07.543Z,93.00
2022-11-27T18:34:34.986Z,93.00
2022-11-27T18:37:02.935Z,93.00
2022-11-27T18:39:31.261Z,93.00
2022-11-27T18:41:58.424Z,93.10
2022-11-27T18:44:26.702Z,93.10
2022-11-27T18:46:53.979Z,93.20
2022-11-27T18:49:22.779Z,92.90
2022-11-27T18:51:51.235Z,93.30
2022-11-27T18:54:19.776Z,93.30
2022-11-27T18:56:46.996Z,93.30
2022-11-27T18:59:14.176Z,93.10
2022-11-27T19:01:42.762Z,93.40
2022-11-27T19:04:14.947Z,93.50
2022-11-27T19:06:43.426Z,93.60
2022-11-27T19:09:13.044Z,93.30
2022-11-27T19:11:41.105Z,93.70
2022-11-27T19:14:09.744Z,93.80
2022-11-27T19:16:46.980Z,93.80
2022-11-27T19:22:07.321Z,94.00
2022-11-27T19:24:34.730Z,93.90
2022-11-27T19:27:01.971Z,94.00
2022-11-27T19:29:29.114Z,94.00
2022-11-27T19:31:58.665Z,94.40
2022-11-27T19:34:25.996Z,94.00
2022-11-27T19:36:53.245Z,94.00
2022-11-27T19:39:20.371Z,94.10
2022-11-27T19:41:49.156Z,94.10
2022-11-27T19:44:17.468Z,94.10
2022-11-27T19:46:46.382Z,94.20
2022-11-27T19:49:17.869Z,94.30
2022-11-27T19:51:46.615Z,94.30
2022-11-27T19:54:15.478Z,94.20
2022-11-27T19:56:43.139Z,94.20
2022-11-27T19:59:12.289Z,94.20
2022-11-27T20:01:41.421Z,94.20
2022-11-27T20:04:11.355Z,94.30
2022-11-27T20:06:39.597Z,94.20
2022-11-27T20:09:07.820Z,94.30
2022-11-27T20:11:37.884Z,94.30
2022-11-27T20:14:06.185Z,94.30
2022-11-27T20:16:35.322Z,94.30
2022-11-27T20:19:05.509Z,94.40
2022-11-27T20:21:40.026Z,94.30
2022-11-27T20:24:07.445Z,94.30
2022-11-27T20:26:39.690Z,94.30
2022-11-27T20:29:10.648Z,94.30
2022-11-27T20:31:40.606Z,94.40
2022-11-27T20:34:08.556Z,94.30
2022-11-27T20:36:39.175Z,94.30
2022-11-27T20:39:06.777Z,94.40
2022-11-27T20:41:33.909Z,94.30
2022-11-27T20:44:02.260Z,94.40
2022-11-27T20:46:32.115Z,94.30
2022-11-27T20:48:59.651Z,94.00
2022-11-27T20:51:33.293Z,94.30
2022-11-27T20:54:07.356Z,94.30
2022-11-27T20:56:34.809Z,94.40
2022-11-27T20:59:02.271Z,94.50
2022-11-27T21:01:34.617Z,94.40
2022-11-27T21:04:08.919Z,94.50
2022-11-27T21:06:43.392Z,94.50
2022-11-27T21:09:14.447Z,94.20
2022-11-27T21:11:43.370Z,94.40
2022-11-27T21:14:13.253Z,94.30
2022-11-27T21:16:43.472Z,94.50
2022-11-27T21:19:26.766Z,94.60
2022-11-27T21:21:56.655Z,94.60
2022-11-27T21:24:27.320Z,94.40
2022-11-27T21:26:55.704Z,94.50
2022-11-27T21:29:25.682Z,94.60
2022-11-27T21:31:55.193Z,94.60
2022-11-27T21:34:23.889Z,94.70
2022-11-27T21:36:51.412Z,94.60
2022-11-27T21:39:22.512Z,94.50
2022-11-27T21:41:52.160Z,94.70
2022-11-27T21:44:21.647Z,94.80
2022-11-27T21:46:49.518Z,94.90
2022-11-27T21:49:20.040Z,94.90
2022-11-27T21:51:51.895Z,94.80
2022-11-27T21:54:19.886Z,94.70
2022-11-27T21:56:50.792Z,94.70
2022-11-27T21:59:18.313Z,94.50
2022-11-27T22:01:46.040Z,94.80
2022-11-27T22:04:14.080Z,94.90
2022-11-27T22:06:43.204Z,94.80
2022-11-27T22:09:15.085Z,94.80
2022-11-27T22:11:44.044Z,94.80
2022-11-27T22:14:11.806Z,94.70
2022-11-27T22:16:44.816Z,95.30
2022-11-27T22:19:14.136Z,94.50
2022-11-27T22:21:41.675Z,94.90
2022-11-27T22:24:13.569Z,94.90
2022-11-27T22:26:45.425Z,94.90
2022-11-27T22:29:13.890Z,94.90
2022-11-27T22:31:41.713Z,94.80
2022-11-27T22:34:09.063Z,94.80
2022-11-27T22:36:36.611Z,94.80
2022-11-27T22:39:07.187Z,94.80
2022-11-27T22:41:36.687Z,94.80
2022-11-27T22:44:09.677Z,94.80
2022-11-27T22:46:40.878Z,94.80
2022-11-27T22:49:10.779Z,94.40
2022-11-27T22:51:38.360Z,94.80
2022-11-27T22:54:07.372Z,94.70
2022-11-27T22:56:35.991Z,94.80
2022-11-27T22:59:31.796Z,94.80
2022-11-27T23:01:52.569Z,94.90
2022-11-27T23:04:19.766Z,94.90
2022-11-27T23:06:48.463Z,95.00
2022-11-27T23:09:18.031Z,94.90
2022-11-27T23:11:45.653Z,95.00
2022-11-27T23:14:13.521Z,94.90
2022-11-27T23:16:40.860Z,94.90
2022-11-27T23:19:09.263Z,94.90
2022-11-27T23:21:38.527Z,95.00
2022-11-27T23:24:07.331Z,95.00
2022-11-27T23:26:34.921Z,95.10
2022-11-27T23:29:02.370Z,95.00
2022-11-27T23:31:37.191Z,95.10
2022-11-27T23:34:08.055Z,95.10
2022-11-27T23:36:35.791Z,95.20
2022-11-27T23:39:06.536Z,95.20
2022-11-27T23:41:33.781Z,95.10
2022-11-27T23:44:01.912Z,95.10
2022-11-27T23:46:30.635Z,95.00
2022-11-27T23:48:59.894Z,94.60
2022-11-27T23:51:31.449Z,95.00
2022-11-27T23:53:59.949Z,94.90
2022-11-27T23:56:30.069Z,95.00
2022-11-27T23:58:58.368Z,95.00
